Time;durP1;ratioP1;P1;durP2;ratioP2;P2;SDS_P1;SDS_P2;PMS_P1;PMS_P2;Temp;Humidity;BMP_temperature;BMP_pressure;BME280_temperature;BME280_humidity;BME280_pressure;Samples;Min_cycle;Max_cycle;Signal;HPM_P1;HPM_P2
2021/04/04 00:02:21;;;;;;;7.33;4.73;;;2.70;99.90;;;;;;4976829;28;20192;-84
2021/04/04 00:04:46;;;;;;;7.27;4.93;;;2.70;99.90;;;;;;4990558;28;20185;-84
2021/04/04 00:07:12;;;;;;;5.77;4.80;;;2.70;99.90;;;;;;4991213;28;20759;-83
2021/04/04 00:09:38;;;;;;;6.30;4.77;;;2.70;99.90;;;;;;4990700;28;20183;-83
2021/04/04 00:12:05;;;;;;;9.17;5.47;;;2.60;99.90;;;;;;4976296;28;20206;-83
2021/04/04 00:14:30;;;;;;;9.07;5.33;;;2.60;99.90;;;;;;4992112;28;20307;-83
2021/04/04 00:16:56;;;;;;;6.73;5.10;;;2.60;99.90;;;;;;4991354;28;20908;-83
2021/04/04 00:19:22;;;;;;;7.47;5.97;;;2.60;99.90;;;;;;4989084;28;20196;-83
2021/04/04 00:21:48;;;;;;;6.97;6.27;;;2.60;99.90;;;;;;4974114;28;20208;-83
2021/04/04 00:24:14;;;;;;;7.00;6.00;;;2.60;99.90;;;;;;4975970;28;20984;-83
2021/04/04 00:26:39;;;;;;;7.80;5.53;;;2.60;99.90;;;;;;4996483;28;20273;-84
2021/04/04 00:29:06;;;;;;;6.63;5.93;;;2.60;99.90;;;;;;4991755;28;20733;-83
2021/04/04 00:31:34;;;;;;;8.13;6.80;;;2.70;99.90;;;;;;5001557;28;20640;-83
2021/04/04 00:33:59;;;;;;;6.90;5.77;;;2.70;99.90;;;;;;4990307;28;20506;-83
2021/04/04 00:36:25;;;;;;;8.90;5.60;;;2.70;99.90;;;;;;4977366;28;20594;-84
2021/04/04 00:38:51;;;;;;;7.03;5.67;;;2.70;99.90;;;;;;4978810;28;20340;-84
2021/04/04 00:41:17;;;;;;;7.33;5.73;;;2.70;99.90;;;;;;4975368;28;21194;-84
2021/04/04 00:43:43;;;;;;;7.30;5.57;;;2.70;99.90;;;;;;4976106;28;20466;-83
2021/04/04 00:46:08;;;;;;;8.00;6.10;;;2.70;99.90;;;;;;4993031;28;20203;-84
2021/04/04 00:48:34;;;;;;;6.70;5.37;;;2.50;99.90;;;;;;4989064;28;20250;-84
2021/04/04 00:51:00;;;;;;;8.40;6.53;;;2.30;99.90;;;;;;4974562;28;20176;-84
2021/04/04 00:53:28;;;;;;;7.83;6.13;;;2.10;99.90;;;;;;4994924;28;20228;-83
2021/04/04 00:55:54;;;;;;;7.87;5.90;;;2.10;99.90;;;;;;4995550;28;21263;-84
2021/04/04 00:58:20;;;;;;;8.00;6.00;;;2.10;99.90;;;;;;4993132;28;20801;-83
2021/04/04 01:00:45;;;;;;;8.63;5.73;;;2.00;99.90;;;;;;4980641;28;20439;-83
2021/04/04 01:03:11;;;;;;;6.70;5.50;;;1.90;99.90;;;;;;4995661;28;20211;-83
2021/04/04 01:05:41;;;;;;;7.03;5.20;;;1.90;99.90;;;;;;4991793;28;20193;-83
2021/04/04 01:08:07;;;;;;;8.00;5.13;;;1.90;99.90;;;;;;4993288;28;20617;-83
2021/04/04 01:10:36;;;;;;;7.17;5.60;;;2.00;99.90;;;;;;4979293;28;20439;-83
2021/04/04 01:13:19;;;;;;;5.20;4.70;;;1.90;99.90;;;;;;4964625;28;20826;-83
2021/04/04 01:16:03;;;;;;;9.70;4.73;;;1.80;99.90;;;;;;4992373;28;20440;-82
2021/04/04 01:18:37;;;;;;;6.33;4.30;;;1.80;99.90;;;;;;4995583;28;20438;-83
2021/04/04 01:21:27;;;;;;;5.47;4.40;;;1.90;99.90;;;;;;4977802;28;20439;-84
2021/04/04 01:24:29;;;;;;;8.83;5.30;;;1.80;99.90;;;;;;4991358;28;20981;-83
2021/04/04 01:27:01;;;;;;;5.97;5.00;;;1.70;99.90;;;;;;5012300;28;20866;-83
2021/04/04 01:29:28;;;;;;;5.47;4.80;;;1.70;99.90;;;;;;4980418;28;20452;-83
2021/04/04 01:31:55;;;;;;;6.63;5.10;;;1.70;99.90;;;;;;4989833;28;20451;-83
2021/04/04 01:34:23;;;;;;;6.00;5.00;;;1.70;99.90;;;;;;4994107;28;20830;-83
2021/04/04 01:36:53;;;;;;;5.60;5.10;;;1.70;99.90;;;;;;4991065;28;20463;-83
2021/04/04 01:39:22;;;;;;;10.63;5.57;;;1.80;99.90;;;;;;4992990;28;20462;-84
2021/04/04 01:41:49;;;;;;;6.37;5.40;;;1.70;99.90;;;;;;4995513;28;20437;-84
2021/04/04 01:44:21;;;;;;;6.50;5.03;;;1.70;99.90;;;;;;4992527;28;20455;-83
2021/04/04 01:46:48;;;;;;;10.70;6.30;;;1.70;99.90;;;;;;4990360;28;20439;-84
2021/04/04 01:49:15;;;;;;;7.73;5.63;;;1.70;99.90;;;;;;4991298;28;20444;-82
2021/04/04 01:51:43;;;;;;;8.77;5.27;;;1.60;99.90;;;;;;4985251;28;20495;-83
2021/04/04 01:54:09;;;;;;;8.60;5.37;;;1.60;99.90;;;;;;4994957;28;20555;-82
2021/04/04 01:56:35;;;;;;;10.77;5.07;;;1.60;99.90;;;;;;4994425;28;20794;-82
2021/04/04 01:59:02;;;;;;;6.67;5.30;;;1.60;99.90;;;;;;4992753;28;20448;-82
2021/04/04 02:01:30;;;;;;;9.80;5.80;;;1.70;99.90;;;;;;4989928;28;20448;-83
2021/04/04 02:04:00;;;;;;;6.30;4.80;;;1.60;99.90;;;;;;4973871;28;20451;-82
2021/04/04 02:06:26;;;;;;;6.23;4.60;;;1.50;99.90;;;;;;4994662;28;20505;-82
2021/04/04 02:08:54;;;;;;;7.03;5.43;;;1.50;99.90;;;;;;4973959;28;20432;-82
2021/04/04 02:11:24;;;;;;;8.07;5.60;;;1.40;99.90;;;;;;4986911;28;20476;-83
2021/04/04 02:13:51;;;;;;;8.10;5.77;;;1.40;99.90;;;;;;4995650;28;20529;-82
2021/04/04 02:16:18;;;;;;;10.17;5.67;;;1.30;99.90;;;;;;4990452;28;20459;-83
2021/04/04 02:18:45;;;;;;;9.00;4.97;;;1.20;99.90;;;;;;4993878;28;20821;-83
2021/04/04 02:21:12;;;;;;;10.33;6.03;;;1.20;99.90;;;;;;4990411;28;20436;-83
2021/04/04 02:23:39;;;;;;;6.67;5.30;;;1.30;99.90;;;;;;4995714;28;20466;-83
2021/04/04 02:26:04;;;;;;;7.10;5.53;;;1.30;99.90;;;;;;4988591;28;20536;-83
2021/04/04 02:28:30;;;;;;;6.73;5.17;;;1.30;99.90;;;;;;4993339;28;20463;-83
2021/04/04 02:30:56;;;;;;;8.17;5.77;;;1.30;99.90;;;;;;4998596;28;20658;-83
2021/04/04 02:33:34;;;;;;;8.50;4.63;;;1.30;99.90;;;;;;4975998;28;20275;-83
2021/04/04 02:36:06;;;;;;;6.20;5.00;;;1.20;99.90;;;;;;4976047;28;20841;-83
2021/04/04 02:38:38;;;;;;;7.30;4.93;;;1.10;99.90;;;;;;4990673;28;20538;-83
2021/04/04 02:41:06;;;;;;;8.37;5.60;;;1.30;99.90;;;;;;4994225;28;20440;-83
2021/04/04 02:43:34;;;;;;;6.57;4.30;;;1.30;99.90;;;;;;4974071;28;20455;-82
2021/04/04 02:46:04;;;;;;;5.37;4.40;;;1.30;99.90;;;;;;4993625;28;20435;-82
2021/04/04 02:48:33;;;;;;;15.53;13.80;;;1.30;99.90;;;;;;4987524;28;20455;-82
2021/04/04 02:51:05;;;;;;;10.60;9.00;;;1.40;99.90;;;;;;4988239;28;20530;-83
2021/04/04 02:53:39;;;;;;;9.03;7.20;;;1.50;99.90;;;;;;4992015;28;21326;-82
2021/04/04 02:56:06;;;;;;;6.07;5.47;;;1.50;99.90;;;;;;4990143;28;20782;-83
2021/04/04 02:58:33;;;;;;;6.87;5.10;;;1.40;99.90;;;;;;4978207;28;20444;-83
2021/04/04 03:01:00;;;;;;;5.73;5.00;;;1.30;99.90;;;;;;4971896;28;20532;-83
2021/04/04 03:03:29;;;;;;;6.93;5.17;;;1.10;99.90;;;;;;4976995;28;20456;-82
2021/04/04 03:06:02;;;;;;;6.40;5.13;;;1.00;99.90;;;;;;4974827;28;20637;-83
2021/04/04 03:08:28;;;;;;;7.37;4.73;;;1.00;99.90;;;;;;4993103;28;20440;-82
2021/04/04 03:10:55;;;;;;;5.83;5.07;;;1.00;99.90;;;;;;4991965;28;20458;-82
2021/04/04 03:13:24;;;;;;;6.87;5.73;;;0.90;99.90;;;;;;5001408;28;21039;-82
2021/04/04 03:15:51;;;;;;;9.73;5.93;;;1.00;99.90;;;;;;4992796;28;20495;-82
2021/04/04 03:18:18;;;;;;;8.83;5.07;;;1.10;99.90;;;;;;4989029;28;20447;-82
2021/04/04 03:20:45;;;;;;;8.13;6.00;;;1.10;99.90;;;;;;4987655;28;20443;-82
2021/04/04 03:23:14;;;;;;;7.37;5.60;;;1.20;99.90;;;;;;4987455;28;20543;-82
2021/04/04 03:25:40;;;;;;;10.90;5.90;;;1.10;99.90;;;;;;4975787;28;20846;-83
2021/04/04 03:28:06;;;;;;;7.87;4.73;;;1.10;99.90;;;;;;4982192;28;20458;-82
2021/04/04 03:30:35;;;;;;;5.50;4.93;;;1.00;99.90;;;;;;4957101;28;20496;-82
2021/04/04 03:33:03;;;;;;;6.07;4.17;;;1.10;99.90;;;;;;4969783;28;20445;-82
2021/04/04 03:35:31;;;;;;;5.10;4.57;;;1.00;99.90;;;;;;4957431;28;20801;-82
2021/04/04 03:37:58;;;;;;;7.43;4.53;;;1.00;99.90;;;;;;4991841;28;20853;-82
2021/04/04 03:40:25;;;;;;;4.97;4.45;;;0.90;99.90;;;;;;4992145;28;20455;-82
2021/04/04 03:42:52;;;;;;;7.80;5.07;;;0.90;99.90;;;;;;4983037;28;20182;-82
2021/04/04 03:45:18;;;;;;;5.73;4.13;;;0.90;99.90;;;;;;4985592;28;20441;-83
2021/04/04 03:47:46;;;;;;;5.28;4.55;;;0.90;99.90;;;;;;4974939;28;20859;-82
2021/04/04 03:50:13;;;;;;;5.20;4.13;;;0.70;99.90;;;;;;4989866;28;20262;-82
2021/04/04 03:52:39;;;;;;;5.47;4.43;;;0.70;99.90;;;;;;4991336;28;20813;-82
2021/04/04 03:55:08;;;;;;;7.18;4.80;;;0.70;99.90;;;;;;4975830;28;20772;-82
2021/04/04 03:57:37;;;;;;;9.30;6.60;;;0.70;99.90;;;;;;4988376;28;20859;-82
2021/04/04 04:00:06;;;;;;;9.52;7.13;;;0.80;99.90;;;;;;4959078;28;20543;-82
2021/04/04 04:02:34;;;;;;;12.13;8.35;;;0.70;99.90;;;;;;4952800;28;20195;-82
2021/04/04 04:05:01;;;;;;;10.60;8.93;;;0.60;99.90;;;;;;4974854;28;20231;-82
2021/04/04 04:07:28;;;;;;;8.60;7.00;;;0.60;99.90;;;;;;4984681;28;21079;-82
2021/04/04 04:09:56;;;;;;;7.80;5.80;;;0.60;99.90;;;;;;4973891;28;20444;-82
2021/04/04 04:12:22;;;;;;;6.15;5.00;;;0.60;99.90;;;;;;4975344;28;20184;-82
2021/04/04 04:14:48;;;;;;;7.10;4.93;;;0.60;99.90;;;;;;4985395;28;20216;-82
2021/04/04 04:17:18;;;;;;;6.60;5.20;;;0.60;99.90;;;;;;4974374;28;20221;-82
2021/04/04 04:19:44;;;;;;;9.00;5.05;;;0.60;99.90;;;;;;4989717;28;20521;-82
2021/04/04 04:22:11;;;;;;;9.20;5.33;;;0.60;99.90;;;;;;4974280;28;20185;-82
2021/04/04 04:24:38;;;;;;;7.78;4.97;;;0.60;99.90;;;;;;4991091;28;20806;-82
2021/04/04 04:27:04;;;;;;;6.65;4.70;;;0.60;99.90;;;;;;4973705;28;20636;-82
2021/04/04 04:29:30;;;;;;;11.45;4.88;;;0.50;99.90;;;;;;4977638;28;20214;-82
2021/04/04 04:31:57;;;;;;;7.20;5.00;;;0.50;99.90;;;;;;4975974;28;20189;-82
2021/04/04 04:34:24;;;;;;;9.88;5.47;;;0.50;99.90;;;;;;5010572;28;20489;-82
2021/04/04 04:36:53;;;;;;;10.68;6.82;;;0.50;99.90;;;;;;4999419;28;20436;-82
2021/04/04 04:39:19;;;;;;;8.70;7.10;;;0.50;99.90;;;;;;4981956;28;20184;-82
2021/04/04 04:41:47;;;;;;;10.97;7.63;;;0.50;99.90;;;;;;4992993;28;20180;-82
2021/04/04 04:44:18;;;;;;;9.88;7.32;;;0.50;99.90;;;;;;4991345;28;20538;-82
2021/04/04 04:46:44;;;;;;;8.65;5.97;;;0.60;99.90;;;;;;4978972;28;20343;-82
2021/04/04 04:49:10;;;;;;;7.00;5.40;;;0.50;99.90;;;;;;4977421;28;20489;-82
2021/04/04 04:51:36;;;;;;;8.43;6.00;;;0.50;99.90;;;;;;4982751;28;20852;-82
2021/04/04 04:54:04;;;;;;;11.38;5.50;;;0.50;99.90;;;;;;4992250;28;20510;-82
2021/04/04 04:56:30;;;;;;;5.28;4.50;;;0.40;99.90;;;;;;4994815;28;20193;-82
2021/04/04 04:58:56;;;;;;;7.05;5.07;;;0.50;99.90;;;;;;4998216;28;20264;-82
2021/04/04 05:01:26;;;;;;;5.73;4.23;;;0.50;99.90;;;;;;4988541;28;20193;-83
2021/04/04 05:03:51;;;;;;;9.00;5.07;;;0.50;99.90;;;;;;4994259;28;20189;-82
2021/04/04 05:06:18;;;;;;;9.97;5.40;;;0.60;99.90;;;;;;4998615;28;20654;-82
2021/04/04 05:08:46;;;;;;;6.65;4.50;;;0.50;99.90;;;;;;4993829;28;20185;-82
2021/04/04 05:11:18;;;;;;;4.72;4.28;;;0.60;99.90;;;;;;4992966;28;20177;-82
2021/04/04 05:13:44;;;;;;;6.47;4.32;;;0.60;99.90;;;;;;4987355;28;20220;-82
2021/04/04 05:16:12;;;;;;;6.67;6.07;;;0.50;99.90;;;;;;4983234;28;23341;-82
2021/04/04 05:18:45;;;;;;;11.20;7.35;;;0.50;99.90;;;;;;4993492;28;20586;-83
2021/04/04 05:21:11;;;;;;;6.95;6.22;;;0.50;99.90;;;;;;4994442;28;20204;-82
2021/04/04 05:23:37;;;;;;;17.80;11.80;;;0.70;99.90;;;;;;4980609;28;20194;-82
2021/04/04 05:26:03;;;;;;;8.10;7.00;;;0.70;99.90;;;;;;4980358;28;21291;-83
2021/04/04 05:28:31;;;;;;;9.75;6.15;;;0.70;99.90;;;;;;4974067;28;20452;-82
2021/04/04 05:31:03;;;;;;;6.80;5.10;;;0.70;99.90;;;;;;4974782;28;20411;-82
2021/04/04 05:33:30;;;;;;;5.47;4.40;;;0.80;99.90;;;;;;4978402;28;20216;-82
2021/04/04 05:36:01;;;;;;;5.97;4.53;;;0.80;99.90;;;;;;4978772;28;20448;-82
2021/04/04 05:38:27;;;;;;;7.05;5.10;;;0.90;99.90;;;;;;4980706;28;20462;-82
2021/04/04 05:40:56;;;;;;;6.03;4.40;;;0.90;99.90;;;;;;4979247;28;20396;-82
2021/04/04 05:43:29;;;;;;;5.93;4.78;;;1.00;99.90;;;;;;4973604;28;20488;-83
2021/04/04 05:45:58;;;;;;;9.13;4.88;;;1.00;99.90;;;;;;4988533;28;20270;-82
2021/04/04 05:48:41;;;;;;;8.68;4.57;;;1.10;99.90;;;;;;4992085;28;20196;-82
2021/04/04 05:51:26;;;;;;;7.53;5.50;;;1.10;99.90;;;;;;4991192;28;20181;-82
2021/04/04 05:54:17;;;;;;;5.20;4.70;;;1.10;99.90;;;;;;4973171;28;20212;-82
2021/04/04 05:56:56;;;;;;;7.13;5.10;;;1.20;99.90;;;;;;4988327;28;20530;-82
2021/04/04 05:59:33;;;;;;;6.90;5.00;;;1.30;99.90;;;;;;4972103;28;20196;-82
2021/04/04 06:02:02;;;;;;;4.87;4.43;;;1.50;99.90;;;;;;4985451;28;20454;-82
2021/04/04 06:04:31;;;;;;;7.05;5.80;;;1.50;99.90;;;;;;4984936;28;20958;-82
2021/04/04 06:07:04;;;;;;;8.90;6.27;;;1.50;99.90;;;;;;4972877;28;20200;-82
2021/04/04 06:09:50;;;;;;;8.47;5.63;;;1.70;99.90;;;;;;4985973;28;20459;-86
2021/04/04 06:12:48;;;;;;;8.73;5.77;;;1.80;99.90;;;;;;4985607;28;20448;-80
2021/04/04 06:15:38;;;;;;;8.00;5.25;;;1.90;99.90;;;;;;4904478;28;20834;-80
2021/04/04 06:18:12;;;;;;;6.90;4.40;;;1.90;99.90;;;;;;4956115;28;20197;-81
2021/04/04 06:20:46;;;;;;;6.80;4.50;;;2.00;99.90;;;;;;4971840;28;20467;-81
2021/04/04 06:23:21;;;;;;;8.60;5.23;;;2.20;99.90;;;;;;4970132;28;20915;-80
2021/04/04 06:25:53;;;;;;;6.57;5.77;;;2.40;99.90;;;;;;4973339;28;20458;-81
2021/04/04 06:28:52;;;;;;;7.50;5.10;;;2.50;99.90;;;;;;4978274;28;20468;-80
2021/04/04 06:31:34;;;;;;;8.80;5.60;;;2.60;99.90;;;;;;4982400;28;20514;-79
2021/04/04 06:34:16;;;;;;;6.47;4.90;;;2.70;99.90;;;;;;4993671;28;20575;-78
2021/04/04 06:37:01;;;;;;;6.40;5.33;;;2.80;99.90;;;;;;4975109;28;20453;-78
2021/04/04 06:39:55;;;;;;;7.33;6.00;;;3.00;99.90;;;;;;4986671;28;20451;-79
2021/04/04 06:42:27;;;;;;;6.70;5.47;;;3.00;99.90;;;;;;4976443;28;20464;-79
2021/04/04 06:45:14;;;;;;;7.70;6.90;;;3.10;99.90;;;;;;4993041;28;20946;-79
2021/04/04 06:47:45;;;;;;;7.70;5.90;;;3.30;99.90;;;;;;4988288;28;20579;-79
2021/04/04 06:50:16;;;;;;;7.93;6.50;;;3.50;99.90;;;;;;5006006;28;20505;-79
2021/04/04 06:52:48;;;;;;;5.80;5.27;;;3.60;99.90;;;;;;4976854;28;20439;-80
2021/04/04 06:55:29;;;;;;;8.60;5.83;;;3.70;99.90;;;;;;4974790;28;20537;-79
2021/04/04 06:58:01;;;;;;;8.70;5.90;;;3.70;99.90;;;;;;4979213;28;21484;-79
2021/04/04 07:00:55;;;;;;;7.73;5.70;;;3.80;99.90;;;;;;4996097;28;20451;-79
2021/04/04 07:03:25;;;;;;;7.40;5.40;;;4.00;99.90;;;;;;4961830;28;20531;-79
2021/04/04 07:06:01;;;;;;;6.43;5.80;;;4.10;99.90;;;;;;4995325;28;20440;-79
2021/04/04 07:08:33;;;;;;;7.80;5.73;;;4.10;99.90;;;;;;4995130;28;20469;-78
2021/04/04 07:11:19;;;;;;;8.53;6.23;;;4.20;99.90;;;;;;4996110;28;20440;-79
2021/04/04 07:14:17;;;;;;;7.80;5.70;;;4.30;99.90;;;;;;4978618;28;20502;-79
2021/04/04 07:16:46;;;;;;;6.20;5.60;;;4.20;99.90;;;;;;4980071;28;20435;-80
2021/04/04 07:19:45;;;;;;;7.57;5.80;;;4.30;99.90;;;;;;4998413;28;20464;-80
2021/04/04 07:22:36;;;;;;;12.90;5.63;;;4.40;99.90;;;;;;4993831;28;20536;-79
2021/04/04 07:25:07;;;;;;;6.53;5.43;;;4.50;99.90;;;;;;4991023;28;20425;-80
2021/04/04 07:27:54;;;;;;;6.70;5.27;;;4.70;99.90;;;;;;4997314;28;20454;-79
2021/04/04 07:30:37;;;;;;;7.30;6.60;;;5.10;99.90;;;;;;4997308;28;20479;-79
2021/04/04 07:33:25;;;;;;;8.25;6.10;;;5.40;99.40;;;;;;4996437;28;20494;-79
2021/04/04 07:36:14;;;;;;;6.10;5.50;;;5.40;98.30;;;;;;4980363;28;20833;-79
2021/04/04 07:38:42;;;;;;;7.90;7.20;;;5.50;98.90;;;;;;4975890;28;20494;-80
2021/04/04 07:41:21;;;;;;;11.43;6.20;;;5.90;98.50;;;;;;4980678;28;20522;-79
2021/04/04 07:44:17;;;;;;;7.23;5.90;;;6.00;98.20;;;;;;4983377;28;20805;-80
2021/04/04 07:47:02;;;;;;;8.60;5.60;;;6.40;97.70;;;;;;4989322;28;20592;-80
2021/04/04 07:49:45;;;;;;;7.50;5.13;;;6.60;95.30;;;;;;4987362;28;20463;-80
2021/04/04 07:52:35;;;;;;;6.27;5.63;;;6.60;95.70;;;;;;4973259;28;20455;-79
2021/04/04 07:55:15;;;;;;;13.83;6.07;;;6.80;95.00;;;;;;4991307;28;21009;-79
2021/04/04 07:58:12;;;;;;;9.50;6.90;;;7.00;95.80;;;;;;4992578;28;20459;-79
2021/04/04 08:00:45;;;;;;;9.77;5.77;;;7.10;96.60;;;;;;4995672;28;20447;-79
2021/04/04 08:03:21;;;;;;;7.43;6.00;;;7.40;95.50;;;;;;4976356;28;20456;-80
2021/04/04 08:05:51;;;;;;;7.93;6.33;;;7.50;96.10;;;;;;4978921;28;20525;-80
2021/04/04 08:08:30;;;;;;;6.90;6.20;;;7.80;97.20;;;;;;4976439;28;20525;-82
2021/04/04 08:11:25;;;;;;;8.67;6.40;;;8.10;96.30;;;;;;4987793;28;20443;-83
2021/04/04 08:14:14;;;;;;;6.83;5.50;;;8.20;95.80;;;;;;4959467;28;21526;-83
2021/04/04 08:16:50;;;;;;;7.90;6.03;;;8.40;94.20;;;;;;4971907;28;20505;-83
2021/04/04 08:19:16;;;;;;;8.27;5.43;;;8.20;93.90;;;;;;4989218;28;20455;-83
2021/04/04 08:22:36;;;;;;;7.97;6.00;;;8.30;95.10;;;;;;4987191;28;20969;-83
2021/04/04 08:25:09;;;;;;;8.93;6.03;;;8.70;94.60;;;;;;4917552;29;20245;-84
2021/04/04 08:28:00;;;;;;;11.33;6.80;;;8.80;94.20;;;;;;4898194;29;20465;-84
2021/04/04 08:30:49;;;;;;;6.80;5.30;;;8.80;93.10;;;;;;4948411;28;21005;-84
2021/04/04 08:33:37;;;;;;;6.90;5.20;;;8.50;92.60;;;;;;4989783;28;20510;-85
2021/04/04 08:36:05;;;;;;;6.60;5.47;;;8.40;93.40;;;;;;4966724;28;20456;-84
2021/04/04 08:38:44;;;;;;;7.70;6.10;;;8.50;93.20;;;;;;4981122;28;20459;-84
2021/04/04 08:41:13;;;;;;;6.60;5.40;;;8.50;92.90;;;;;;4977318;28;20482;-84
2021/04/04 08:43:55;;;;;;;;;;;;;;;;;;;;;
2021/04/04 08:46:42;;;;;;;8.50;5.70;;;9.20;93.00;;;;;;4988176;28;20478;-85
2021/04/04 08:49:08;;;;;;;6.57;5.70;;;9.50;93.60;;;;;;4987974;28;20471;-86
2021/04/04 08:52:17;;;;;;;7.87;5.60;;;9.50;91.60;;;;;;4985035;28;20440;-88
2021/04/04 08:54:48;;;;;;;7.37;5.20;;;9.70;92.20;;;;;;4962382;28;20480;-85
2021/04/04 08:57:14;;;;;;;9.70;6.53;;;9.90;91.30;;;;;;4973495;28;20446;-85
2021/04/04 08:59:46;;;;;;;8.00;5.80;;;10.30;90.50;;;;;;4988167;28;20511;-84
2021/04/04 09:02:14;;;;;;;7.13;5.47;;;10.40;91.70;;;;;;4989913;28;20448;-84
2021/04/04 09:04:41;;;;;;;6.47;5.00;;;10.50;85.70;;;;;;4968087;28;20452;-84
2021/04/04 09:07:08;;;;;;;7.30;5.83;;;10.50;82.50;;;;;;4971820;28;20457;-84
2021/04/04 09:09:41;;;;;;;6.33;4.97;;;10.50;86.30;;;;;;4989483;28;20437;-84
2021/04/04 09:12:08;;;;;;;6.33;5.73;;;10.10;85.70;;;;;;4997503;28;20526;-84
2021/04/04 09:14:44;;;;;;;7.50;5.03;;;10.30;90.50;;;;;;4996075;28;20479;-84
2021/04/04 09:17:12;;;;;;;8.53;5.20;;;10.70;87.20;;;;;;4978833;28;20437;-84
2021/04/04 09:19:40;;;;;;;5.17;3.40;;;10.90;85.20;;;;;;4991689;28;20456;-84
2021/04/04 09:22:18;;;;;;;5.03;3.40;;;11.20;79.70;;;;;;4977245;28;20454;-84
2021/04/04 09:24:56;;;;;;;4.77;3.97;;;11.50;79.00;;;;;;4997689;28;20461;-84
2021/04/04 09:27:25;;;;;;;3.90;3.50;;;11.80;71.20;;;;;;4975318;28;20806;-85
2021/04/04 09:29:52;;;;;;;5.90;5.30;;;11.90;69.30;;;;;;4978887;28;20455;-84
2021/04/04 09:32:46;;;;;;;4.33;3.57;;;11.90;69.40;;;;;;4975941;28;20454;-85
2021/04/04 09:35:17;;;;;;;4.40;3.93;;;12.20;66.40;;;;;;4974690;28;20593;-85
2021/04/04 09:37:44;;;;;;;3.53;3.20;;;12.30;64.20;;;;;;4967063;28;20981;-84
2021/04/04 09:40:11;;;;;;;4.03;2.70;;;12.40;57.50;;;;;;4992017;28;20451;-84
2021/04/04 09:42:38;;;;;;;4.10;2.73;;;12.60;58.80;;;;;;4994982;28;20475;-84
2021/04/04 09:45:13;;;;;;;3.13;2.30;;;12.50;54.40;;;;;;4975825;28;20808;-84
2021/04/04 09:47:38;;;;;;;7.40;3.80;;;12.20;55.00;;;;;;4981294;28;20459;-85
2021/04/04 09:50:24;;;;;;;5.47;4.73;;;12.50;61.00;;;;;;4992385;28;20478;-85
2021/04/04 09:52:51;;;;;;;3.50;3.00;;;12.70;51.20;;;;;;4994934;28;20628;-85
2021/04/04 09:55:19;;;;;;;4.47;2.87;;;12.50;52.90;;;;;;4993264;28;20464;-84
2021/04/04 09:57:50;;;;;;;3.57;3.10;;;12.10;52.70;;;;;;4976810;28;20941;-84
2021/04/04 10:00:28;;;;;;;4.23;3.73;;;12.40;55.10;;;;;;4994720;28;20468;-84
2021/04/04 10:02:58;;;;;;;3.50;3.20;;;12.70;54.30;;;;;;4992024;28;20445;-84
2021/04/04 10:05:33;;;;;;;4.50;3.03;;;12.80;51.40;;;;;;4991201;28;20460;-84
2021/04/04 10:08:17;;;;;;;5.50;3.00;;;12.90;55.20;;;;;;4976789;28;20441;-84
2021/04/04 10:10:48;;;;;;;3.57;2.87;;;13.20;53.20;;;;;;4991217;28;20448;-85
2021/04/04 10:13:15;;;;;;;4.40;3.00;;;13.20;54.10;;;;;;4976068;28;20447;-85
2021/04/04 10:15:48;;;;;;;3.90;3.50;;;13.30;55.70;;;;;;4978666;28;20452;-84
2021/04/04 10:18:17;;;;;;;3.20;2.83;;;13.40;54.20;;;;;;4982343;28;20819;-85
2021/04/04 10:20:53;;;;;;;5.03;3.53;;;13.70;48.00;;;;;;4991376;28;20447;-84
2021/04/04 10:23:27;;;;;;;3.87;3.57;;;12.90;46.30;;;;;;4990914;28;20487;-85
2021/04/04 10:26:05;;;;;;;3.50;2.73;;;12.70;46.20;;;;;;4967324;28;20501;-85
2021/04/04 10:29:01;;;;;;;4.93;3.20;;;13.40;49.60;;;;;;4974500;28;20955;-85
2021/04/04 10:31:45;;;;;;;3.53;3.23;;;13.70;49.00;;;;;;4967121;28;20445;-84
2021/04/04 10:34:12;;;;;;;4.37;2.90;;;14.10;45.80;;;;;;4973060;28;20475;-85
2021/04/04 10:36:38;;;;;;;4.23;3.07;;;14.10;48.30;;;;;;4967899;28;20460;-85
2021/04/04 10:39:21;;;;;;;2.90;2.60;;;14.20;47.40;;;;;;4962135;28;20477;-86
2021/04/04 10:41:48;;;;;;;3.50;2.67;;;14.20;43.60;;;;;;4958961;28;20451;-84
2021/04/04 10:44:24;;;;;;;4.17;3.30;;;14.50;47.10;;;;;;4981622;28;20469;-84
2021/04/04 10:46:50;;;;;;;4.37;3.23;;;15.00;48.00;;;;;;4992554;28;20455;-85
2021/04/04 10:49:36;;;;;;;3.67;3.03;;;15.30;43.80;;;;;;4972962;28;20459;-91
2021/04/04 10:52:07;;;;;;;3.87;3.53;;;15.40;42.20;;;;;;4995543;28;20620;-90
2021/04/04 10:54:33;;;;;;;3.57;3.27;;;15.10;47.00;;;;;;4976208;28;20850;-89
2021/04/04 10:57:02;;;;;;;4.30;3.27;;;14.60;41.30;;;;;;4975695;28;20481;-94
2021/04/04 10:59:29;;;;;;;4.90;3.20;;;14.80;44.20;;;;;;4976236;28;20981;-89
2021/04/04 11:01:58;;;;;;;5.70;3.13;;;15.20;43.70;;;;;;4990484;28;20790;-89
2021/04/04 11:04:24;;;;;;;3.90;3.53;;;14.50;44.20;;;;;;4986467;28;20462;-89
2021/04/04 11:06:50;;;;;;;3.97;3.67;;;14.10;45.60;;;;;;4985937;28;20496;-91
2021/04/04 11:09:17;;;;;;;4.33;3.33;;;13.40;43.00;;;;;;4974347;28;20449;-90
2021/04/04 11:11:44;;;;;;;3.77;3.47;;;13.50;46.60;;;;;;4976135;28;20535;-91
2021/04/04 11:14:15;;;;;;;5.50;3.60;;;13.80;47.00;;;;;;4986859;28;20496;-90
2021/04/04 11:16:41;;;;;;;4.20;3.60;;;14.00;45.10;;;;;;4988487;28;20758;-89
2021/04/04 11:19:09;;;;;;;3.70;3.33;;;13.60;44.30;;;;;;4991828;28;20828;-87
2021/04/04 11:21:42;;;;;;;5.90;3.90;;;13.70;45.50;;;;;;4972383;28;20550;-85
2021/04/04 11:24:16;;;;;;;4.77;3.50;;;13.30;44.70;;;;;;4992874;28;20439;-83
2021/04/04 11:26:59;;;;;;;5.73;3.87;;;12.90;45.50;;;;;;4977957;28;20840;-84
2021/04/04 11:29:27;;;;;;;4.43;3.77;;;13.20;48.90;;;;;;4990547;28;20440;-84
2021/04/04 11:32:15;;;;;;;3.83;3.43;;;13.30;45.00;;;;;;4991507;28;20474;-84
2021/04/04 11:34:41;;;;;;;3.73;3.33;;;13.40;45.40;;;;;;4987603;28;20570;-83
2021/04/04 11:37:13;;;;;;;4.10;3.70;;;14.30;50.10;;;;;;4992766;28;21069;-84
2021/04/04 11:39:40;;;;;;;4.83;3.77;;;15.10;47.50;;;;;;4974321;28;20221;-83
2021/04/04 11:42:17;;;;;;;4.27;3.80;;;15.30;44.20;;;;;;4976971;28;20576;-84
2021/04/04 11:44:52;;;;;;;6.30;3.80;;;16.00;43.70;;;;;;4987989;28;20509;-85
2021/04/04 11:47:17;;;;;;;6.83;4.10;;;15.10;42.40;;;;;;4991260;28;20821;-84
2021/04/04 11:49:57;;;;;;;5.10;3.33;;;15.50;46.60;;;;;;4970029;28;20938;-83
2021/04/04 11:52:22;;;;;;;4.00;3.70;;;15.90;45.00;;;;;;4993590;28;20185;-84
2021/04/04 11:54:51;;;;;;;5.23;4.17;;;15.90;47.00;;;;;;4978438;28;20477;-85
2021/04/04 11:57:31;;;;;;;5.00;3.67;;;15.90;44.80;;;;;;4994014;28;20288;-84
2021/04/04 12:00:05;;;;;;;4.37;3.77;;;16.60;41.90;;;;;;4981242;28;21188;-84
2021/04/04 12:02:32;;;;;;;5.60;4.43;;;16.50;43.30;;;;;;4980556;28;20439;-82
2021/04/04 12:05:13;;;;;;;6.27;4.40;;;15.50;40.80;;;;;;4998229;28;21164;-83
2021/04/04 12:07:46;;;;;;;4.90;4.50;;;15.10;41.20;;;;;;4989719;28;20509;-83
2021/04/04 12:10:14;;;;;;;5.30;4.50;;;14.60;42.70;;;;;;4975870;28;20505;-83
2021/04/04 12:12:41;;;;;;;4.40;3.93;;;15.00;44.00;;;;;;4976195;28;20451;-83
2021/04/04 12:15:08;;;;;;;4.83;4.20;;;15.00;41.40;;;;;;4975336;28;21053;-83
2021/04/04 12:17:33;;;;;;;4.50;4.10;;;14.90;41.10;;;;;;4989959;28;20443;-82
2021/04/04 12:20:00;;;;;;;5.47;4.30;;;14.20;39.50;;;;;;4975570;28;20962;-84
2021/04/04 12:22:38;;;;;;;6.13;4.20;;;14.10;41.10;;;;;;4971625;28;20676;-83
2021/04/04 12:25:14;;;;;;;4.80;4.40;;;14.10;44.30;;;;;;4987136;28;20475;-85
2021/04/04 12:27:41;;;;;;;5.57;4.27;;;14.60;41.40;;;;;;4988294;28;21487;-83
2021/04/04 12:30:20;;;;;;;6.00;3.73;;;14.90;40.10;;;;;;4990583;28;20448;-83
2021/04/04 12:32:45;;;;;;;5.33;4.10;;;14.60;39.00;;;;;;4984931;28;21196;-83
2021/04/04 12:35:23;;;;;;;4.97;4.23;;;14.70;43.00;;;;;;4972037;28;21060;-84
2021/04/04 12:37:49;;;;;;;4.07;3.60;;;14.40;39.50;;;;;;4968516;28;20197;-83
2021/04/04 12:40:15;;;;;;;6.57;4.30;;;14.20;39.40;;;;;;4973453;28;20529;-82
2021/04/04 12:42:40;;;;;;;4.87;4.40;;;14.60;41.50;;;;;;4986267;28;20471;-81
2021/04/04 12:45:12;;;;;;;4.50;4.10;;;14.70;39.60;;;;;;4954594;28;20560;-82
2021/04/04 12:47:40;;;;;;;4.77;4.27;;;14.60;39.50;;;;;;4984801;28;20734;-81
2021/04/04 12:50:09;;;;;;;6.07;4.47;;;14.50;40.60;;;;;;4994467;28;20443;-81
2021/04/04 12:53:01;;;;;;;6.10;4.27;;;15.00;40.00;;;;;;4982959;28;20908;-81
2021/04/04 12:55:29;;;;;;;5.53;4.10;;;15.50;40.40;;;;;;4953760;28;20942;-81
2021/04/04 12:58:06;;;;;;;5.10;3.87;;;15.20;37.80;;;;;;4982002;28;20444;-81
2021/04/04 13:00:34;;;;;;;5.07;4.17;;;15.30;42.10;;;;;;4985378;28;20445;-83
2021/04/04 13:03:08;;;;;;;4.43;4.03;;;15.40;37.70;;;;;;4971277;28;20455;-84
2021/04/04 13:05:52;;;;;;;6.40;4.40;;;15.00;37.10;;;;;;4973957;28;20443;-83
2021/04/04 13:08:18;;;;;;;5.07;4.57;;;15.20;39.10;;;;;;4974569;28;20457;-83
2021/04/04 13:10:56;;;;;;;4.47;4.07;;;15.50;38.70;;;;;;4973759;28;20455;-83
2021/04/04 13:13:28;;;;;;;4.17;3.70;;;15.90;38.70;;;;;;4972735;28;20193;-82
2021/04/04 13:16:01;;;;;;;4.90;4.27;;;16.50;38.60;;;;;;4967077;28;20873;-82
2021/04/04 13:18:35;;;;;;;4.40;3.37;;;16.60;37.00;;;;;;4981049;28;20454;-82
2021/04/04 13:21:21;;;;;;;4.10;3.70;;;15.90;34.50;;;;;;4958618;28;20444;-83